Airfield :
LOGIN :

Register | Disclaimer

   EN    FR    IT 

 










Legend :    VFR   Marginal VFR   IFR   Intensive IFR   Very Intensive IFR
Visi :
Ceiling :
>= 8 km
>= 3000ft
5 to 8 km
1000 to 3000 ft
1500m to 5 km
500 to 1000 ft
800 to 1500m
200 to 500 ft
< 800m
< 200 ft
Symbols :   Thunderstorms  Fog  Heavy snow  Heavy precipitations  Wind > 20 kt
SIGMETs :     Misc.  Thunderstorms  Icing  Turbulence  Mountain Waves  Volcanic Ashes







- Airport Elevation : 1470 ft
- IATA code : KLU


LOWK - Klagenfurt

CURRENT METAR :
  • 291250Z 10005KT 050V160 9999 FEW060 29/07 Q1015 NOSIG

EXPIRED METARs :
  • 291220Z 08005KT 030V140 9999 FEW060 28/09 Q1016 NOSIG
  • 291150Z 05004KT 300V110 9999 FEW060 27/12 Q1016 NOSIG
  • 291120Z VRB03KT 9999 FEW060 26/13 Q1017 NOSIG
  • 291050Z 01004KT 330V040 9999 FEW060 26/14 Q1017 NOSIG
  • 291020Z VRB03KT 9999 FEW060 24/13 Q1017 NOSIG

TAF TAF LOWK
Valid from the 29 at 12:00 until the 30 at 12:00 UTC


291115Z 2912/3012 09005KT 9999 FEW060 SCT300 TX30/3012Z TN15/3004Z
TEMPO 2913/2917 10008KT
BECMG 2917/2919 VRB02KT CAVOK
BECMG 3011/3012 9999 FEW060CB SCT140
No reported NOTAMs for that airfield.



MET'MAP, your aeronautical weather chart ! - Copyright ORBIFLY December 2007 - Disclaimer

ORBIFLY MET'MAP TEAM :

Programming & Development : Alexandra Zaïnal
Concept & Development : Baudouin d'Aumeries
Co-Development & Prog : Marc-Olivier Méhu
Technical & hardware support : Manuel Goepfert

Contact : metmap@orbifly.com




SOURCES & CREDITS :

   NOAA